Time;durP1;ratioP1;P1;durP2;ratioP2;P2;SDS_P1;SDS_P2;PMS_P1;PMS_P2;Temp;Humidity;BMP_temperature;BMP_pressure;BME280_temperature;BME280_humidity;BME280_pressure;Samples;Min_cycle;Max_cycle;Signal;HPM_P1;HPM_P2
2024/03/20 00:01:33;;;;;;;2.67;1.58;;;18.90;92.40;;;;;;5034368;28;20037;-43
2024/03/20 00:03:59;;;;;;;2.08;1.60;;;18.90;92.40;;;;;;5033854;28;20063;-43
2024/03/20 00:06:25;;;;;;;2.20;1.60;;;18.90;92.40;;;;;;5033773;28;20369;-43
2024/03/20 00:08:51;;;;;;;1.90;1.40;;;18.90;92.40;;;;;;5033601;28;20021;-42
2024/03/20 00:11:17;;;;;;;2.35;1.50;;;18.90;92.30;;;;;;5033632;28;20097;-44
2024/03/20 00:13:44;;;;;;;2.10;1.30;;;18.90;92.30;;;;;;5032348;28;20548;-43
2024/03/20 00:16:10;;;;;;;2.78;1.60;;;18.90;92.40;;;;;;5033598;28;20144;-45
2024/03/20 00:18:36;;;;;;;2.70;1.38;;;18.90;92.40;;;;;;5033463;28;20104;-45
2024/03/20 00:21:02;;;;;;;2.50;1.50;;;18.90;92.30;;;;;;5033285;28;20032;-41
2024/03/20 00:23:28;;;;;;;2.42;1.58;;;18.90;92.30;;;;;;5033526;28;20064;-45
2024/03/20 00:25:53;;;;;;;1.92;1.52;;;18.90;92.30;;;;;;5033301;28;20060;-44
2024/03/20 00:28:19;;;;;;;2.92;1.48;;;18.80;92.30;;;;;;5033233;28;20044;-44
2024/03/20 00:30:44;;;;;;;3.72;1.60;;;18.90;92.30;;;;;;5033158;28;20021;-43
2024/03/20 00:33:10;;;;;;;2.08;1.38;;;18.80;92.30;;;;;;5033259;28;20412;-44
2024/03/20 00:35:37;;;;;;;1.92;1.10;;;18.80;92.30;;;;;;5033007;28;20104;-44
2024/03/20 00:38:04;;;;;;;2.25;1.40;;;18.80;92.30;;;;;;5033069;28;20105;-44
2024/03/20 00:40:30;;;;;;;1.65;1.27;;;18.80;92.30;;;;;;5033035;28;20443;-44
2024/03/20 00:42:55;;;;;;;2.60;1.40;;;18.80;92.30;;;;;;5033216;28;20033;-44
2024/03/20 00:45:21;;;;;;;2.42;1.30;;;18.80;92.30;;;;;;5032977;28;20590;-44
2024/03/20 00:47:47;;;;;;;2.20;1.40;;;18.80;92.30;;;;;;5032773;28;20032;-44
2024/03/20 00:50:13;;;;;;;1.50;1.20;;;18.80;92.30;;;;;;5032617;28;20064;-44
2024/03/20 00:52:38;;;;;;;3.05;1.40;;;18.80;92.30;;;;;;5032850;28;20036;-44
2024/03/20 00:55:04;;;;;;;2.20;1.30;;;18.80;92.30;;;;;;5032723;28;20041;-44
2024/03/20 00:57:30;;;;;;;1.77;1.20;;;18.80;92.30;;;;;;5032602;28;20033;-42
2024/03/20 00:59:56;;;;;;;2.20;1.50;;;18.80;92.30;;;;;;5032802;28;20511;-43
2024/03/20 01:02:22;;;;;;;1.98;1.40;;;18.80;92.30;;;;;;5032709;28;20481;-43
2024/03/20 01:04:47;;;;;;;1.95;1.35;;;18.70;92.30;;;;;;5032535;28;20034;-44
2024/03/20 01:07:13;;;;;;;2.78;1.70;;;18.80;92.30;;;;;;5032456;28;20481;-44
2024/03/20 01:09:38;;;;;;;2.47;1.45;;;18.80;92.30;;;;;;5032035;28;20038;-44
2024/03/20 01:12:04;;;;;;;2.22;1.40;;;18.80;92.30;;;;;;5032816;28;20029;-44
2024/03/20 01:14:30;;;;;;;3.00;1.48;;;18.70;92.30;;;;;;5032389;28;20543;-44
2024/03/20 01:16:55;;;;;;;1.88;1.40;;;18.70;92.60;;;;;;5032332;28;20389;-44
2024/03/20 01:19:21;;;;;;;2.10;1.30;;;18.70;92.30;;;;;;5032190;28;20025;-43
2024/03/20 01:21:47;;;;;;;1.65;1.27;;;18.70;92.30;;;;;;5032231;28;20029;-43
2024/03/20 01:24:12;;;;;;;1.98;1.30;;;18.70;92.30;;;;;;5032349;28;20492;-44
2024/03/20 01:26:38;;;;;;;1.95;1.40;;;18.70;92.30;;;;;;5032067;28;20116;-42
2024/03/20 01:29:04;;;;;;;1.83;1.30;;;18.70;92.30;;;;;;5032074;28;20029;-41
2024/03/20 01:31:30;;;;;;;2.25;1.30;;;18.70;92.20;;;;;;5031990;28;20032;-41
2024/03/20 01:33:56;;;;;;;3.60;1.40;;;18.70;92.20;;;;;;5031979;28;20017;-44
2024/03/20 01:36:21;;;;;;;1.52;0.93;;;18.70;92.20;;;;;;5032036;28;20025;-44
2024/03/20 01:38:47;;;;;;;2.30;1.30;;;18.70;92.30;;;;;;5031977;28;20036;-43
2024/03/20 01:41:13;;;;;;;2.50;1.23;;;18.70;92.20;;;;;;5032036;28;20022;-44
2024/03/20 01:43:38;;;;;;;1.90;1.15;;;18.70;92.40;;;;;;5032053;28;20393;-45
2024/03/20 01:46:32;;;;;;;2.85;1.48;;;18.70;92.50;;;;;;5032182;28;20116;-45
2024/03/20 01:48:59;;;;;;;2.60;1.60;;;18.70;92.20;;;;;;5031732;28;20473;-44
2024/03/20 01:51:26;;;;;;;2.28;1.60;;;18.70;92.20;;;;;;5031577;28;20451;-44
2024/03/20 01:53:55;;;;;;;2.58;1.40;;;18.70;92.20;;;;;;5031752;28;20027;-44
2024/03/20 01:56:21;;;;;;;2.10;1.30;;;18.70;92.20;;;;;;5031513;28;20071;-44
2024/03/20 01:58:46;;;;;;;1.92;1.27;;;18.70;92.20;;;;;;5031554;28;20230;-44
2024/03/20 02:01:12;;;;;;;1.95;1.38;;;18.70;92.20;;;;;;5031545;28;20033;-44
2024/03/20 02:03:37;;;;;;;2.08;1.42;;;18.70;92.20;;;;;;5031606;28;20104;-44
2024/03/20 02:06:03;;;;;;;1.30;1.13;;;18.70;92.20;;;;;;5031514;28;20034;-44
2024/03/20 02:08:30;;;;;;;2.85;1.38;;;18.70;92.20;;;;;;5031450;28;20041;-44
2024/03/20 02:10:55;;;;;;;2.22;1.42;;;18.70;92.20;;;;;;5031380;28;20447;-44
2024/03/20 02:13:21;;;;;;;3.15;1.40;;;18.70;92.20;;;;;;5031472;28;20021;-44
2024/03/20 02:15:47;;;;;;;1.73;1.10;;;18.70;92.20;;;;;;5031427;28;20056;-45
2024/03/20 02:18:12;;;;;;;2.42;1.30;;;18.70;92.20;;;;;;5031269;28;20084;-43
2024/03/20 02:20:38;;;;;;;1.60;1.30;;;18.60;92.20;;;;;;5029032;28;20029;-45
2024/03/20 02:23:04;;;;;;;1.95;1.20;;;18.60;92.10;;;;;;5031571;28;20029;-44
2024/03/20 02:25:30;;;;;;;2.33;1.10;;;18.60;92.10;;;;;;5031265;28;20366;-44
2024/03/20 02:27:57;;;;;;;2.75;1.40;;;18.60;92.10;;;;;;5031113;28;20403;-41
2024/03/20 02:30:24;;;;;;;2.20;1.25;;;18.60;92.20;;;;;;5031129;28;20410;-45
2024/03/20 02:32:49;;;;;;;2.20;1.33;;;18.60;92.10;;;;;;5031455;28;20377;-45
2024/03/20 02:35:15;;;;;;;2.17;1.20;;;18.60;92.10;;;;;;5031328;28;20072;-45
2024/03/20 02:37:41;;;;;;;2.08;1.20;;;18.60;92.20;;;;;;5030991;28;20018;-44
2024/03/20 02:40:07;;;;;;;3.13;1.38;;;18.60;92.10;;;;;;5031134;28;20033;-44
2024/03/20 02:42:34;;;;;;;1.77;0.90;;;18.60;92.20;;;;;;5031075;28;20056;-45
2024/03/20 02:45:00;;;;;;;2.17;1.25;;;18.60;92.10;;;;;;5030950;28;20061;-45
2024/03/20 02:47:26;;;;;;;1.95;1.20;;;18.60;92.10;;;;;;5030961;28;20021;-45
2024/03/20 02:49:53;;;;;;;1.73;1.10;;;18.60;92.10;;;;;;5031132;28;20517;-45
2024/03/20 02:52:19;;;;;;;1.75;1.30;;;18.60;92.10;;;;;;5031228;28;20397;-44
2024/03/20 02:54:45;;;;;;;1.42;0.95;;;18.50;92.10;;;;;;5031131;28;20475;-45
2024/03/20 02:57:11;;;;;;;1.90;1.17;;;18.50;92.10;;;;;;5030967;28;20180;-45
2024/03/20 02:59:36;;;;;;;1.65;1.17;;;18.50;92.10;;;;;;5031044;28;20140;-44
2024/03/20 03:02:02;;;;;;;1.88;1.20;;;18.50;92.10;;;;;;5031025;28;20119;-44
2024/03/20 03:04:28;;;;;;;1.90;1.20;;;18.50;92.10;;;;;;5030901;28;20043;-44
2024/03/20 03:06:53;;;;;;;1.75;1.10;;;18.50;92.10;;;;;;5030685;28;20025;-44
2024/03/20 03:09:19;;;;;;;3.25;1.30;;;18.50;92.10;;;;;;5030779;28;20450;-43
2024/03/20 03:11:45;;;;;;;2.33;1.40;;;18.50;92.10;;;;;;5030717;28;20033;-44
2024/03/20 03:14:15;;;;;;;1.42;0.90;;;18.50;92.40;;;;;;5030980;28;20400;-41
2024/03/20 03:16:41;;;;;;;1.88;1.17;;;18.50;92.10;;;;;;5031081;28;20378;-44
2024/03/20 03:19:07;;;;;;;3.00;1.30;;;18.50;92.10;;;;;;5030750;28;20048;-44
2024/03/20 03:21:34;;;;;;;3.00;1.10;;;18.50;92.10;;;;;;5030777;28;20036;-44
2024/03/20 03:23:59;;;;;;;2.38;1.23;;;18.50;92.10;;;;;;5030923;28;20029;-44
2024/03/20 03:26:25;;;;;;;1.35;1.08;;;18.50;92.10;;;;;;5030692;28;20388;-44
2024/03/20 03:28:51;;;;;;;1.77;1.20;;;18.50;92.10;;;;;;5030768;28;20033;-44
2024/03/20 03:31:16;;;;;;;2.78;1.20;;;18.50;92.00;;;;;;5030576;28;20025;-44
2024/03/20 03:33:42;;;;;;;1.90;1.30;;;18.50;92.00;;;;;;5034311;28;20025;-44
2024/03/20 03:36:09;;;;;;;2.40;1.23;;;18.50;92.00;;;;;;5034134;28;20362;-44
2024/03/20 03:38:35;;;;;;;1.52;1.20;;;18.50;92.00;;;;;;5034237;28;20039;-44
2024/03/20 03:41:04;;;;;;;3.45;1.20;;;18.50;92.00;;;;;;5034147;28;20526;-43
2024/03/20 03:43:30;;;;;;;2.10;1.10;;;18.50;92.00;;;;;;5034259;28;20041;-44
2024/03/20 03:45:56;;;;;;;2.15;1.40;;;18.50;92.00;;;;;;5032519;28;20120;-43
2024/03/20 03:48:24;;;;;;;1.80;1.10;;;18.50;92.00;;;;;;5033982;28;20068;-44
2024/03/20 03:50:50;;;;;;;3.00;1.05;;;18.40;92.00;;;;;;5033940;28;20021;-44
2024/03/20 03:53:16;;;;;;;2.00;1.20;;;18.40;92.00;;;;;;5034134;28;20029;-45
2024/03/20 03:55:42;;;;;;;2.10;1.10;;;18.40;92.00;;;;;;5033866;28;20033;-44
2024/03/20 03:58:08;;;;;;;2.17;1.23;;;18.50;92.00;;;;;;5033785;28;20026;-44
2024/03/20 04:00:35;;;;;;;2.00;0.98;;;18.40;92.00;;;;;;5033731;28;20037;-45
2024/03/20 04:03:01;;;;;;;1.42;1.02;;;18.40;91.90;;;;;;5033993;28;20022;-44
2024/03/20 04:05:27;;;;;;;2.25;1.13;;;18.40;92.00;;;;;;5033801;28;20025;-44
2024/03/20 04:07:53;;;;;;;1.63;1.02;;;18.40;91.90;;;;;;5033984;28;20033;-43
2024/03/20 04:10:19;;;;;;;2.00;1.10;;;18.40;92.00;;;;;;5033445;28;20053;-44
2024/03/20 04:12:45;;;;;;;0.95;0.82;;;18.40;91.90;;;;;;5032330;28;20029;-44
2024/03/20 04:15:11;;;;;;;2.20;1.20;;;18.40;91.90;;;;;;5033420;28;20026;-44
2024/03/20 04:17:36;;;;;;;1.10;0.80;;;18.40;91.90;;;;;;5033580;28;20539;-43
2024/03/20 04:20:03;;;;;;;1.80;1.00;;;18.40;91.90;;;;;;5033739;28;20033;-43
2024/03/20 04:22:28;;;;;;;2.20;1.02;;;18.40;91.90;;;;;;5033504;28;20032;-42
2024/03/20 04:24:54;;;;;;;1.27;0.90;;;18.40;92.00;;;;;;5033770;28;20030;-39
2024/03/20 04:27:20;;;;;;;2.50;1.10;;;18.40;91.90;;;;;;5033467;28;20037;-44
2024/03/20 04:29:46;;;;;;;2.58;1.20;;;18.40;92.00;;;;;;5033066;28;20029;-41
2024/03/20 04:32:12;;;;;;;1.30;1.05;;;18.40;91.90;;;;;;5033244;28;20296;-46
2024/03/20 04:34:37;;;;;;;1.65;0.93;;;18.30;91.90;;;;;;5033334;28;20029;-45
2024/03/20 04:37:03;;;;;;;1.50;1.00;;;18.30;91.90;;;;;;5033050;28;20040;-44
2024/03/20 04:39:29;;;;;;;2.30;1.10;;;18.40;91.90;;;;;;5033474;28;20021;-44
2024/03/20 04:41:56;;;;;;;1.75;1.05;;;18.30;91.90;;;;;;5033131;28;20100;-44
2024/03/20 04:44:21;;;;;;;2.15;1.20;;;18.30;91.90;;;;;;5031960;28;20032;-43
2024/03/20 04:46:47;;;;;;;1.08;0.85;;;18.30;92.00;;;;;;5032798;28;20029;-43
2024/03/20 04:49:13;;;;;;;1.15;0.93;;;18.30;92.00;;;;;;5033031;28;20040;-44
2024/03/20 04:51:38;;;;;;;1.02;0.90;;;18.30;92.00;;;;;;5032819;28;20041;-41
2024/03/20 04:54:04;;;;;;;1.67;1.00;;;18.40;92.00;;;;;;5032960;28;20040;-44
2024/03/20 04:56:29;;;;;;;1.55;1.00;;;18.30;92.00;;;;;;5032681;28;20531;-44
2024/03/20 04:58:55;;;;;;;2.10;0.98;;;18.30;92.00;;;;;;5032876;28;20041;-44
2024/03/20 05:01:21;;;;;;;1.35;0.80;;;18.30;92.00;;;;;;5032713;28;20087;-44
2024/03/20 05:03:46;;;;;;;1.17;0.90;;;18.30;91.90;;;;;;5032859;28;20036;-44
2024/03/20 05:06:12;;;;;;;1.33;0.80;;;18.30;91.90;;;;;;5032453;28;20097;-44
2024/03/20 05:08:37;;;;;;;1.60;1.10;;;18.30;92.20;;;;;;5032533;28;20032;-44
2024/03/20 05:11:03;;;;;;;1.70;0.98;;;18.30;91.90;;;;;;5032365;28;20025;-44
2024/03/20 05:13:29;;;;;;;1.30;0.70;;;18.30;91.90;;;;;;5032374;28;20505;-45
2024/03/20 05:15:55;;;;;;;1.75;1.10;;;18.30;91.90;;;;;;5032591;28;20307;-45
2024/03/20 05:18:21;;;;;;;1.48;0.98;;;18.30;91.90;;;;;;5032210;28;20022;-44
2024/03/20 05:20:46;;;;;;;2.25;1.20;;;18.30;91.80;;;;;;5032384;28;20026;-44
2024/03/20 05:23:12;;;;;;;1.98;1.08;;;18.30;91.80;;;;;;5032318;28;20025;-44
2024/03/20 05:25:39;;;;;;;2.05;1.23;;;18.30;91.80;;;;;;5032320;28;20065;-44
2024/03/20 05:28:05;;;;;;;2.75;0.90;;;18.30;91.80;;;;;;5032498;28;20068;-45
2024/03/20 05:30:31;;;;;;;1.23;0.90;;;18.30;91.80;;;;;;5031967;28;20203;-43
2024/03/20 05:32:56;;;;;;;1.48;1.10;;;18.30;91.80;;;;;;5032243;28;20447;-44
2024/03/20 05:35:22;;;;;;;2.08;1.20;;;18.30;91.80;;;;;;5032011;28;20105;-44
2024/03/20 05:37:48;;;;;;;2.60;1.00;;;18.30;91.80;;;;;;5032083;28;20018;-43
2024/03/20 05:40:15;;;;;;;1.42;1.02;;;18.30;91.80;;;;;;5031929;28;20028;-41
2024/03/20 05:42:40;;;;;;;1.67;1.20;;;18.30;91.80;;;;;;5031877;28;20037;-43
2024/03/20 05:45:06;;;;;;;2.53;1.30;;;18.30;91.80;;;;;;5031820;28;20072;-43
2024/03/20 05:47:32;;;;;;;2.20;1.30;;;18.30;91.80;;;;;;5031761;28;20033;-43
2024/03/20 05:49:58;;;;;;;1.98;1.40;;;18.20;90.10;;;;;;5031791;28;20323;-43
2024/03/20 05:52:24;;;;;;;3.05;1.48;;;18.00;89.50;;;;;;5031796;28;20079;-43
2024/03/20 05:54:51;;;;;;;4.18;1.65;;;18.00;89.50;;;;;;5031533;28;20036;-43
2024/03/20 05:57:16;;;;;;;1.90;1.30;;;18.00;89.60;;;;;;5031398;28;20029;-42
2024/03/20 05:59:42;;;;;;;2.17;1.48;;;18.00;89.80;;;;;;5031845;28;20358;-44
2024/03/20 06:02:08;;;;;;;1.70;1.40;;;18.00;90.00;;;;;;5031735;28;20025;-43
2024/03/20 06:04:34;;;;;;;2.58;1.60;;;18.00;90.10;;;;;;5031778;28;20029;-44
2024/03/20 06:07:01;;;;;;;2.10;1.40;;;18.00;90.20;;;;;;5031543;28;20025;-44
2024/03/20 06:09:30;;;;;;;3.03;1.67;;;18.10;90.40;;;;;;5031446;28;20481;-44
2024/03/20 06:11:57;;;;;;;2.17;1.50;;;18.00;90.40;;;;;;5031387;28;20032;-43
2024/03/20 06:14:23;;;;;;;2.42;1.40;;;18.00;90.50;;;;;;5031386;28;20026;-43
2024/03/20 06:16:49;;;;;;;2.58;1.60;;;18.00;90.50;;;;;;5031310;28;20021;-44
2024/03/20 06:19:15;;;;;;;2.65;1.40;;;18.00;90.60;;;;;;5031274;28;20029;-41
2024/03/20 06:21:41;;;;;;;1.60;1.27;;;18.00;90.70;;;;;;5031316;28;20026;-44
2024/03/20 06:24:07;;;;;;;1.75;1.40;;;18.00;90.70;;;;;;5031244;28;20018;-44
2024/03/20 06:26:33;;;;;;;1.98;1.30;;;18.00;90.70;;;;;;5031116;28;20068;-44
2024/03/20 06:28:59;;;;;;;2.85;1.55;;;18.00;90.80;;;;;;5031220;28;20053;-42
2024/03/20 06:31:25;;;;;;;2.33;1.50;;;18.00;90.80;;;;;;5063125;28;20386;-44
2024/03/20 06:33:51;;;;;;;2.08;1.52;;;18.10;90.90;;;;;;5031345;28;20013;-44
2024/03/20 06:36:17;;;;;;;1.83;1.40;;;18.00;90.90;;;;;;5031178;28;20021;-44
2024/03/20 06:38:43;;;;;;;2.15;1.52;;;18.10;91.00;;;;;;5031054;28;20018;-44
2024/03/20 06:41:08;;;;;;;2.13;1.40;;;18.10;91.00;;;;;;5031079;28;20440;-44
2024/03/20 06:43:34;;;;;;;1.83;1.00;;;18.10;91.00;;;;;;5031075;28;20025;-44
2024/03/20 06:46:04;;;;;;;1.65;1.20;;;18.10;91.10;;;;;;5030475;28;20029;-43
2024/03/20 06:48:31;;;;;;;2.28;1.35;;;18.10;91.10;;;;;;5031050;28;20112;-44
2024/03/20 06:51:00;;;;;;;1.92;1.13;;;18.10;91.10;;;;;;5031054;28;20037;-43
2024/03/20 06:53:26;;;;;;;1.40;1.20;;;18.10;91.10;;;;;;5031095;28;20108;-41
2024/03/20 06:55:55;;;;;;;1.90;1.30;;;18.10;91.10;;;;;;5031013;28;20025;-44
2024/03/20 06:58:22;;;;;;;3.40;1.50;;;18.10;91.10;;;;;;5030803;28;20468;-44
2024/03/20 07:00:48;;;;;;;1.42;1.20;;;18.10;91.20;;;;;;5031011;28;20430;-44
2024/03/20 07:03:14;;;;;;;2.15;1.35;;;18.10;91.20;;;;;;5029713;28;20048;-44
2024/03/20 07:05:40;;;;;;;3.05;1.40;;;18.20;91.20;;;;;;5030897;28;20017;-44
2024/03/20 07:08:09;;;;;;;1.83;1.27;;;18.20;91.20;;;;;;5034146;28;20246;-44
2024/03/20 07:10:38;;;;;;;1.55;1.13;;;18.20;91.30;;;;;;5034608;28;20055;-44
2024/03/20 07:13:07;;;;;;;2.05;1.25;;;18.20;91.30;;;;;;5034692;28;20029;-44
2024/03/20 07:15:36;;;;;;;1.75;1.02;;;18.20;91.30;;;;;;5034708;28;20028;-44
2024/03/20 07:18:02;;;;;;;2.80;1.63;;;18.30;91.40;;;;;;5034827;28;20043;-45
2024/03/20 07:20:29;;;;;;;2.88;1.73;;;18.30;91.20;;;;;;5033286;28;20026;-45
2024/03/20 07:22:57;;;;;;;2.88;1.55;;;18.20;90.50;;;;;;5034637;28;20623;-45
2024/03/20 07:25:26;;;;;;;2.72;1.80;;;18.20;90.40;;;;;;5034557;28;20400;-44
2024/03/20 07:27:53;;;;;;;3.20;1.90;;;18.20;90.40;;;;;;5034498;28;20407;-44
2024/03/20 07:30:18;;;;;;;3.13;1.77;;;18.30;90.50;;;;;;5034258;28;20033;-45
2024/03/20 07:32:44;;;;;;;3.25;2.00;;;18.30;90.50;;;;;;5034425;28;20029;-44
2024/03/20 07:35:10;;;;;;;2.58;1.60;;;18.30;90.60;;;;;;5034395;28;20064;-44
2024/03/20 07:37:35;;;;;;;2.60;1.65;;;18.40;90.60;;;;;;5034392;28;20515;-45
2024/03/20 07:40:01;;;;;;;2.03;1.55;;;18.40;90.70;;;;;;5034142;28;20022;-45
2024/03/20 07:42:27;;;;;;;4.68;1.65;;;18.50;90.70;;;;;;5034198;28;20030;-45
2024/03/20 07:44:56;;;;;;;2.20;1.60;;;18.50;90.70;;;;;;5033980;28;20504;-45
2024/03/20 07:47:21;;;;;;;3.15;1.45;;;18.60;90.80;;;;;;5033942;28;20497;-44
2024/03/20 07:49:47;;;;;;;2.47;1.45;;;18.70;90.80;;;;;;5033950;28;20041;-44
2024/03/20 07:52:13;;;;;;;2.85;1.70;;;18.70;90.80;;;;;;5034006;28;20018;-45
2024/03/20 07:54:38;;;;;;;2.40;1.45;;;18.70;90.80;;;;;;5034018;28;20030;-44
2024/03/20 07:57:04;;;;;;;1.80;1.25;;;18.80;90.80;;;;;;5033577;28;20041;-46
2024/03/20 07:59:30;;;;;;;3.03;1.40;;;18.90;90.80;;;;;;5033964;28;20104;-44
2024/03/20 08:01:56;;;;;;;1.70;1.17;;;18.90;90.70;;;;;;5033971;28;20033;-44
2024/03/20 08:04:22;;;;;;;2.17;1.50;;;19.00;90.80;;;;;;5033935;28;20096;-44
2024/03/20 08:06:47;;;;;;;3.15;1.40;;;19.00;90.70;;;;;;5033680;28;20163;-44
2024/03/20 08:09:13;;;;;;;2.20;1.45;;;19.10;90.70;;;;;;5033751;28;20520;-44
2024/03/20 08:11:39;;;;;;;3.55;1.58;;;19.10;90.60;;;;;;5033597;28;20032;-44
2024/03/20 08:14:08;;;;;;;2.13;1.25;;;19.20;90.60;;;;;;5033614;28;20044;-44
2024/03/20 08:16:35;;;;;;;1.98;1.23;;;19.30;90.60;;;;;;5033553;28;20028;-44
2024/03/20 08:19:01;;;;;;;2.08;1.20;;;19.30;90.60;;;;;;5033483;28;20388;-44
2024/03/20 08:21:27;;;;;;;2.33;1.35;;;19.40;90.60;;;;;;5033317;28;20032;-44
2024/03/20 08:23:52;;;;;;;1.48;1.10;;;19.50;90.50;;;;;;5033424;28;20112;-44
2024/03/20 08:26:18;;;;;;;1.73;1.33;;;19.50;90.50;;;;;;5033231;28;20028;-44
2024/03/20 08:28:44;;;;;;;2.10;1.40;;;19.50;90.40;;;;;;5033247;28;20554;-44
2024/03/20 08:31:09;;;;;;;1.58;1.20;;;19.60;90.40;;;;;;5033566;28;20029;-44
2024/03/20 08:33:35;;;;;;;2.63;1.00;;;19.70;90.40;;;;;;5033266;28;20034;-44
2024/03/20 08:36:04;;;;;;;1.75;1.10;;;19.70;90.30;;;;;;5033123;28;20025;-44
2024/03/20 08:38:30;;;;;;;1.85;1.17;;;19.80;90.30;;;;;;5033233;28;20018;-45
2024/03/20 08:40:55;;;;;;;1.77;1.20;;;19.80;90.20;;;;;;5033080;28;20074;-45
2024/03/20 08:43:24;;;;;;;2.65;1.08;;;19.90;90.20;;;;;;5033175;28;20401;-45
2024/03/20 08:45:50;;;;;;;2.08;1.30;;;20.00;90.20;;;;;;5033064;28;20033;-45
2024/03/20 08:48:16;;;;;;;1.60;1.13;;;20.00;90.10;;;;;;5032807;28;20033;-45
2024/03/20 08:50:43;;;;;;;1.90;1.25;;;20.00;90.00;;;;;;5033269;28;20026;-45
2024/03/20 08:53:11;;;;;;;2.75;1.30;;;20.10;90.00;;;;;;5032917;28;20482;-45
2024/03/20 08:55:37;;;;;;;1.55;1.08;;;20.20;90.00;;;;;;5032832;28;20017;-45
2024/03/20 08:58:03;;;;;;;2.78;1.10;;;20.20;89.90;;;;;;5032582;28;20056;-45
2024/03/20 09:00:28;;;;;;;2.25;1.10;;;20.30;89.80;;;;;;5032765;28;20083;-45
2024/03/20 09:02:54;;;;;;;1.40;0.93;;;20.30;89.70;;;;;;5032834;28;20037;-45
2024/03/20 09:05:21;;;;;;;1.50;0.80;;;20.40;89.50;;;;;;5032650;28;20033;-45
2024/03/20 09:07:47;;;;;;;1.80;1.30;;;20.40;89.40;;;;;;5032556;28;20033;-45
2024/03/20 09:10:12;;;;;;;1.08;0.90;;;20.50;89.40;;;;;;5032378;28;20036;-45
2024/03/20 09:12:38;;;;;;;1.75;1.00;;;20.50;89.30;;;;;;5032518;28;20043;-45
2024/03/20 09:15:05;;;;;;;1.25;0.90;;;20.60;89.20;;;;;;5032423;28;20034;-45
2024/03/20 09:17:31;;;;;;;1.90;1.00;;;20.60;89.10;;;;;;5032043;28;20018;-45
2024/03/20 09:19:57;;;;;;;1.02;0.80;;;20.70;89.10;;;;;;5032335;28;20033;-44
2024/03/20 09:22:22;;;;;;;2.97;0.95;;;20.70;89.70;;;;;;5032367;28;20075;-44
2024/03/20 09:24:48;;;;;;;1.70;0.90;;;20.80;88.90;;;;;;5032162;28;20075;-44
2024/03/20 09:27:14;;;;;;;2.42;1.00;;;20.80;89.50;;;;;;5032217;28;20029;-44
2024/03/20 09:29:40;;;;;;;1.50;1.00;;;20.90;88.70;;;;;;5031726;28;20017;-44
2024/03/20 09:32:06;;;;;;;1.40;1.10;;;21.00;88.60;;;;;;5032526;28;20032;-44
2024/03/20 09:34:36;;;;;;;1.23;0.60;;;21.00;88.50;;;;;;5032002;28;20029;-44
2024/03/20 09:37:02;;;;;;;1.50;1.00;;;21.00;88.40;;;;;;5032040;28;20048;-44
2024/03/20 09:39:28;;;;;;;1.88;0.90;;;21.10;88.30;;;;;;5031995;28;20021;-44
2024/03/20 09:41:54;;;;;;;1.20;0.88;;;21.10;88.20;;;;;;5032122;28;20037;-44
2024/03/20 09:44:22;;;;;;;0.85;0.80;;;21.20;88.10;;;;;;5032024;28;20040;-43
2024/03/20 09:46:51;;;;;;;1.20;0.88;;;21.30;88.10;;;;;;5031659;28;20476;-44
2024/03/20 09:49:19;;;;;;;1.13;0.80;;;21.30;87.90;;;;;;5031760;28;20025;-44
2024/03/20 09:51:45;;;;;;;1.35;0.85;;;21.40;87.80;;;;;;5031871;28;20045;-44
2024/03/20 09:54:10;;;;;;;1.65;0.90;;;21.50;87.80;;;;;;5031798;28;20026;-44
2024/03/20 09:56:37;;;;;;;1.77;0.90;;;21.60;87.70;;;;;;5031493;28;20426;-44
2024/03/20 09:59:04;;;;;;;1.27;0.70;;;21.60;87.60;;;;;;5031576;28;20075;-44
2024/03/20 10:01:29;;;;;;;1.33;0.82;;;21.70;87.50;;;;;;5031488;28;20032;-44
2024/03/20 10:03:55;;;;;;;1.38;0.82;;;21.70;87.30;;;;;;5031853;28;20025;-44
2024/03/20 10:06:25;;;;;;;0.80;0.60;;;21.80;87.40;;;;;;5031430;28;20721;-44
2024/03/20 10:08:51;;;;;;;1.38;0.70;;;21.80;87.10;;;;;;5031543;28;20034;-44
2024/03/20 10:11:20;;;;;;;1.20;0.82;;;22.00;86.80;;;;;;5031442;28;20104;-44
2024/03/20 10:13:46;;;;;;;1.00;0.70;;;22.00;86.40;;;;;;5031427;28;20056;-44
2024/03/20 10:16:14;;;;;;;1.42;0.65;;;22.10;86.20;;;;;;5031617;28;20057;-44
2024/03/20 10:18:44;;;;;;;0.82;0.52;;;22.20;86.50;;;;;;5031390;28;20543;-44
2024/03/20 10:21:10;;;;;;;2.45;0.80;;;22.20;86.60;;;;;;5031313;28;20027;-44
2024/03/20 10:23:40;;;;;;;1.05;0.60;;;22.20;86.80;;;;;;5031423;28;20029;-44
2024/03/20 10:26:07;;;;;;;1.85;0.80;;;22.30;86.50;;;;;;5031248;28;20018;-44
2024/03/20 10:28:35;;;;;;;1.45;0.65;;;22.40;86.50;;;;;;5031135;28;20029;-44
2024/03/20 10:31:05;;;;;;;1.52;0.80;;;22.40;86.30;;;;;;5031062;28;20108;-44
2024/03/20 10:33:32;;;;;;;0.95;0.60;;;22.50;86.30;;;;;;5031525;28;20018;-44
2024/03/20 10:35:59;;;;;;;0.80;0.50;;;22.50;86.10;;;;;;5031367;28;20021;-44
2024/03/20 10:38:29;;;;;;;1.48;0.70;;;22.50;86.00;;;;;;5031110;28;20439;-44
2024/03/20 10:40:55;;;;;;;0.90;0.70;;;22.60;86.70;;;;;;5029689;28;20037;-44
2024/03/20 10:43:26;;;;;;;0.82;0.52;;;22.60;85.90;;;;;;5034818;28;20025;-44
2024/03/20 10:45:56;;;;;;;1.05;0.57;;;22.80;85.70;;;;;;5035328;28;20025;-44
2024/03/20 10:48:23;;;;;;;1.17;0.63;;;22.80;85.40;;;;;;5035152;28;20104;-44
2024/03/20 10:50:51;;;;;;;0.98;0.55;;;23.00;85.20;;;;;;5035177;28;20116;-44
2024/03/20 10:53:18;;;;;;;0.70;0.50;;;23.10;84.90;;;;;;5035035;28;20017;-43
2024/03/20 10:55:47;;;;;;;0.77;0.60;;;23.10;84.80;;;;;;5034974;28;20021;-44
2024/03/20 10:58:16;;;;;;;1.25;0.75;;;23.20;84.60;;;;;;5034976;28;20054;-44
2024/03/20 11:00:52;;;;;;;0.98;0.70;;;23.20;84.50;;;;;;5034916;28;20033;-44
2024/03/20 11:03:41;;;;;;;0.80;0.60;;;23.30;84.30;;;;;;5034931;28;20120;-44
2024/03/20 11:06:28;;;;;;;1.42;0.55;;;23.40;84.20;;;;;;5034721;28;20018;-44
2024/03/20 11:08:55;;;;;;;2.83;0.68;;;23.40;84.10;;;;;;5034800;28;20049;-44
2024/03/20 11:11:20;;;;;;;0.52;0.40;;;23.40;83.80;;;;;;5034668;28;20025;-44
2024/03/20 11:13:51;;;;;;;0.80;0.45;;;23.50;83.70;;;;;;5034834;28;20024;-44
2024/03/20 11:16:24;;;;;;;1.27;0.68;;;23.50;83.50;;;;;;5034542;28;20104;-45
2024/03/20 11:18:56;;;;;;;0.57;0.40;;;23.50;83.30;;;;;;5034666;28;20472;-45
2024/03/20 11:21:25;;;;;;;0.57;0.40;;;23.70;82.90;;;;;;5034594;28;20085;-45
2024/03/20 11:23:55;;;;;;;0.60;0.50;;;23.80;82.40;;;;;;5034608;28;20399;-45
2024/03/20 11:26:21;;;;;;;0.82;0.40;;;23.90;82.00;;;;;;5034503;28;20065;-45
2024/03/20 11:28:47;;;;;;;0.75;0.43;;;24.00;81.90;;;;;;5034360;28;20034;-45
2024/03/20 11:31:14;;;;;;;0.50;0.40;;;24.00;81.80;;;;;;5034330;28;20026;-45
2024/03/20 11:33:42;;;;;;;0.47;0.40;;;24.10;81.70;;;;;;5034509;28;20017;-45
2024/03/20 11:36:15;;;;;;;0.68;0.35;;;24.10;81.60;;;;;;5034316;28;20029;-44
2024/03/20 11:38:41;;;;;;;0.85;0.50;;;24.10;81.50;;;;;;5034644;28;20021;-45
2024/03/20 11:41:10;;;;;;;0.50;0.50;;;24.20;81.50;;;;;;5034221;28;20044;-45
2024/03/20 11:43:43;;;;;;;0.77;0.60;;;24.10;81.50;;;;;;5034229;28;20546;-45
2024/03/20 11:46:16;;;;;;;0.65;0.50;;;24.10;81.80;;;;;;5034173;28;20082;-45
2024/03/20 11:48:52;;;;;;;0.65;0.50;;;24.00;82.00;;;;;;5034159;28;20033;-45
2024/03/20 11:51:22;;;;;;;0.85;0.50;;;23.90;82.00;;;;;;5034014;28;20029;-44
2024/03/20 11:53:49;;;;;;;0.60;0.40;;;23.90;82.00;;;;;;5033535;28;20527;-44
2024/03/20 11:56:15;;;;;;;0.60;0.43;;;23.90;82.10;;;;;;5033795;28;20026;-44
2024/03/20 11:58:41;;;;;;;0.70;0.50;;;23.90;82.10;;;;;;5033861;28;20481;-44
2024/03/20 12:01:08;;;;;;;1.00;0.60;;;23.90;82.10;;;;;;5033828;28;20030;-44
2024/03/20 12:03:35;;;;;;;0.65;0.40;;;23.90;82.00;;;;;;5033904;28;20029;-44
2024/03/20 12:06:21;;;;;;;0.85;0.55;;;23.90;82.00;;;;;;5033790;28;20029;-44
2024/03/20 12:08:47;;;;;;;0.60;0.47;;;23.90;82.00;;;;;;5062964;28;20018;-44
2024/03/20 12:11:26;;;;;;;0.45;0.40;;;23.90;81.90;;;;;;5033762;28;20091;-44
2024/03/20 12:13:52;;;;;;;0.50;0.40;;;23.90;81.90;;;;;;5033685;28;20041;-44
2024/03/20 12:16:26;;;;;;;1.55;0.50;;;24.00;82.00;;;;;;5033528;28;20354;-44
2024/03/20 12:19:10;;;;;;;0.63;0.43;;;24.00;81.90;;;;;;5033947;28;20024;-44
2024/03/20 12:21:37;;;;;;;0.50;0.50;;;24.00;81.80;;;;;;5033702;28;20437;-44
2024/03/20 12:24:04;;;;;;;1.17;0.40;;;24.00;81.80;;;;;;5033644;28;20038;-45
2024/03/20 12:26:30;;;;;;;0.50;0.38;;;24.00;81.70;;;;;;5033323;28;20034;-44
2024/03/20 12:28:55;;;;;;;0.52;0.40;;;24.00;81.60;;;;;;5033338;28;20042;-43
2024/03/20 12:31:22;;;;;;;1.08;0.40;;;24.00;81.60;;;;;;5033128;28;20033;-44
2024/03/20 12:33:51;;;;;;;0.82;0.55;;;24.10;81.50;;;;;;5033306;28;20079;-44
2024/03/20 12:36:18;;;;;;;0.95;0.30;;;24.10;81.50;;;;;;5033112;28;20014;-45
2024/03/20 12:38:52;;;;;;;0.47;0.32;;;24.10;81.50;;;;;;5033210;28;20025;-44
2024/03/20 12:41:19;;;;;;;0.40;0.38;;;24.10;81.30;;;;;;5033193;28;20485;-44
2024/03/20 12:43:46;;;;;;;0.40;0.40;;;24.10;81.30;;;;;;5033033;28;20128;-45
2024/03/20 12:46:13;;;;;;;1.13;0.38;;;24.10;81.30;;;;;;5033040;28;20033;-45